Time;durP1;ratioP1;P1;durP2;ratioP2;P2;SDS_P1;SDS_P2;PMS_P1;PMS_P2;Temp;Humidity;BMP_temperature;BMP_pressure;BME280_temperature;BME280_humidity;BME280_pressure;Samples;Min_cycle;Max_cycle;Signal;HPM_P1;HPM_P2
2022/09/22 00:01:06;;;;;;;;;;;14.50;99.90;;;;;;5095430;28;19908;-76
2022/09/22 00:03:33;;;;;;;;;;;14.70;99.90;;;;;;5095142;28;20372;-76
2022/09/22 00:06:07;;;;;;;;;;;14.70;99.90;;;;;;5095005;28;19908;-77
2022/09/22 00:08:34;;;;;;;;;;;14.70;99.90;;;;;;5094781;28;19908;-77
2022/09/22 00:11:01;;;;;;;;;;;14.70;99.90;;;;;;5095077;28;19991;-77
2022/09/22 00:13:26;;;;;;;;;;;14.70;99.90;;;;;;5094880;28;19916;-75
2022/09/22 00:15:52;;;;;;;;;;;14.60;99.90;;;;;;5094850;28;19932;-77
2022/09/22 00:18:18;;;;;;;;;;;14.50;99.90;;;;;;5094797;28;19991;-77
2022/09/22 00:20:43;;;;;;;;;;;14.50;99.90;;;;;;5094851;28;19908;-77
2022/09/22 00:23:09;;;;;;;;;;;14.50;99.90;;;;;;5093393;28;19912;-77
2022/09/22 00:25:37;;;;;;;;;;;14.40;99.90;;;;;;5093314;28;19908;-78
2022/09/22 00:28:03;;;;;;;;;;;14.10;99.90;;;;;;5094605;28;20002;-75
2022/09/22 00:30:30;;;;;;;;;;;14.10;99.90;;;;;;5094920;28;20376;-76
2022/09/22 00:32:55;;;;;;;;;;;14.00;99.90;;;;;;5094682;28;19984;-75
2022/09/22 00:35:21;;;;;;;;;;;14.00;99.90;;;;;;5093181;28;20367;-76
2022/09/22 00:37:46;;;;;;;;;;;14.00;99.90;;;;;;5094606;28;20325;-77
2022/09/22 00:40:12;;;;;;;;;;;13.90;99.90;;;;;;5094437;28;20003;-77
2022/09/22 00:42:38;;;;;;;;;;;13.70;99.90;;;;;;5094371;28;19912;-75
2022/09/22 00:45:04;;;;;;;;;;;13.60;99.90;;;;;;5094447;28;19912;-76
2022/09/22 00:47:33;;;;;;;;;;;13.70;99.90;;;;;;5092791;28;19908;-75
2022/09/22 00:49:58;;;;;;;;;;;13.80;99.90;;;;;;5094438;28;19914;-75
2022/09/22 00:52:26;;;;;;;;;;;13.90;99.90;;;;;;5094201;28;20425;-77
2022/09/22 00:54:53;;;;;;;;;;;13.80;99.90;;;;;;5094158;28;19954;-75
2022/09/22 00:57:21;;;;;;;;;;;13.70;99.90;;;;;;5094241;28;19973;-76
2022/09/22 00:59:47;;;;;;;;;;;13.80;99.90;;;;;;5094190;28;19916;-77
2022/09/22 01:02:13;;;;;;;;;;;13.70;99.90;;;;;;5094073;28;19908;-77
2022/09/22 01:04:40;;;;;;;;;;;13.60;99.90;;;;;;5094343;28;19919;-77
2022/09/22 01:07:06;;;;;;;;;;;13.60;99.90;;;;;;5094281;28;19909;-77
2022/09/22 01:09:32;;;;;;;;;;;13.60;99.90;;;;;;5093948;28;19909;-75
2022/09/22 01:11:58;;;;;;;;;;;13.40;99.90;;;;;;5093916;28;19994;-77
2022/09/22 01:14:50;;;;;;;;;;;13.30;99.90;;;;;;5093902;28;19908;-75
2022/09/22 01:17:18;;;;;;;;;;;13.40;99.90;;;;;;5090680;28;19908;-77
2022/09/22 01:20:03;;;;;;;;;;;13.40;99.90;;;;;;5093824;28;19999;-77
2022/09/22 01:22:40;;;;;;;;;;;13.40;99.90;;;;;;5092473;28;20310;-77
2022/09/22 01:25:06;;;;;;;;;;;13.30;99.90;;;;;;5093939;28;19965;-75
2022/09/22 01:27:32;;;;;;;;;;;13.40;99.90;;;;;;5093771;28;20327;-75
2022/09/22 01:30:09;;;;;;;;;;;13.30;99.90;;;;;;5094313;28;19912;-74
2022/09/22 01:32:41;;;;;;;;;;;13.20;99.90;;;;;;5093707;28;19908;-76
2022/09/22 01:35:22;;;;;;;;;;;13.00;99.90;;;;;;5092163;28;20296;-76
2022/09/22 01:37:48;;;;;;;;;;;13.00;99.90;;;;;;5093677;28;19912;-76
2022/09/22 01:40:13;;;;;;;;;;;12.80;99.90;;;;;;5093801;28;19961;-75
2022/09/22 01:42:44;;;;;;;;;;;12.80;99.90;;;;;;5095270;28;19915;-75
2022/09/22 01:45:12;;;;;;;;;;;12.80;99.90;;;;;;5097619;28;20369;-76
2022/09/22 01:47:44;;;;;;;;;;;12.90;99.90;;;;;;5097605;28;19912;-76
2022/09/22 01:50:19;;;;;;;;;;;12.90;99.90;;;;;;5096096;28;19912;-76
2022/09/22 01:52:46;;;;;;;;;;;12.90;99.90;;;;;;5097782;28;19954;-76
2022/09/22 01:55:32;;;;;;;;;;;12.90;99.90;;;;;;5097582;28;19916;-76
2022/09/22 01:58:04;;;;;;;;;;;12.90;99.90;;;;;;5097122;28;20056;-76
2022/09/22 02:00:31;;;;;;;;;;;13.00;99.90;;;;;;5097428;28;19908;-75
2022/09/22 02:03:12;;;;;;;;;;;12.80;99.90;;;;;;5097622;28;19908;-76
2022/09/22 02:05:40;;;;;;;;;;;12.80;99.90;;;;;;5096022;28;20300;-76
2022/09/22 02:08:11;;;;;;;;;;;12.80;99.90;;;;;;5097414;28;19912;-78
2022/09/22 02:10:41;;;;;;;;;;;12.80;99.90;;;;;;5097239;28;19908;-75
2022/09/22 02:13:07;;;;;;;;;;;12.70;99.90;;;;;;5097491;28;19923;-77
2022/09/22 02:18:19;;;;;;;;;;;12.70;99.90;;;;;;5096904;28;19915;-75
2022/09/22 02:20:44;;;;;;;;;;;12.70;99.90;;;;;;5097045;28;19914;-76
2022/09/22 02:23:10;;;;;;;;;;;12.30;99.90;;;;;;5096995;28;20003;-76
2022/09/22 02:25:37;;;;;;;;;;;12.30;99.90;;;;;;5097036;28;19916;-77
2022/09/22 02:28:03;;;;;;;;;;;12.30;99.90;;;;;;5097046;28;20349;-76
2022/09/22 02:30:30;;;;;;;;;;;12.30;99.90;;;;;;5097472;28;19935;-76
2022/09/22 02:32:56;;;;;;;;;;;12.30;99.90;;;;;;5096978;28;20368;-77
2022/09/22 02:35:24;;;;;;;;;;;12.10;99.90;;;;;;5096944;28;19912;-77
2022/09/22 02:37:54;;;;;;;;;;;11.80;99.90;;;;;;5096938;28;19916;-75
2022/09/22 02:40:19;;;;;;;;;;;11.70;99.90;;;;;;5096736;28;19914;-75
2022/09/22 02:42:56;;;;;;;;;;;12.00;99.90;;;;;;5096657;28;19908;-75
2022/09/22 02:45:25;;;;;;;;;;;12.10;99.90;;;;;;5096771;28;19908;-76
2022/09/22 02:47:52;;;;;;;;;;;12.00;99.90;;;;;;5096383;28;19982;-77
2022/09/22 02:50:20;;;;;;;;;;;12.20;99.90;;;;;;5096703;28;19915;-75
2022/09/22 02:52:49;;;;;;;;;;;12.30;99.90;;;;;;5096398;28;19916;-75
2022/09/22 02:55:15;;;;;;;;;;;12.20;99.90;;;;;;5096667;28;19912;-77
2022/09/22 02:57:42;;;;;;;;;;;12.30;99.90;;;;;;5096703;28;19974;-76
2022/09/22 03:00:08;;;;;;;;;;;12.40;99.90;;;;;;5095029;28;19919;-75
2022/09/22 03:02:34;;;;;;;;;;;12.40;99.90;;;;;;5096187;28;20360;-76
2022/09/22 03:04:59;;;;;;;;;;;12.30;99.90;;;;;;5096326;28;19908;-78
2022/09/22 03:07:25;;;;;;;;;;;12.20;99.90;;;;;;5096168;28;19909;-75
2022/09/22 03:09:51;;;;;;;;;;;12.10;99.90;;;;;;5096322;28;20391;-75
2022/09/22 03:12:16;;;;;;;;;;;12.00;99.90;;;;;;5096396;28;19908;-75
2022/09/22 03:14:42;;;;;;;;;;;12.00;99.90;;;;;;5096014;28;20291;-77
2022/09/22 03:17:08;;;;;;;;;;;12.10;99.90;;;;;;5096080;28;19916;-74
2022/09/22 03:19:34;;;;;;;;;;;12.00;99.90;;;;;;5095985;28;19954;-75
2022/09/22 03:21:59;;;;;;;;;;;11.90;99.90;;;;;;5096137;28;20387;-77
2022/09/22 03:24:25;;;;;;;;;;;11.80;99.90;;;;;;5096055;28;19999;-76
2022/09/22 03:26:51;;;;;;;;;;;11.90;99.90;;;;;;5095801;28;20425;-75
2022/09/22 03:29:16;;;;;;;;;;;11.90;99.90;;;;;;5094423;28;20368;-76
2022/09/22 03:31:42;;;;;;;;;;;12.00;99.90;;;;;;5096212;28;19908;-74
2022/09/22 03:34:07;;;;;;;;;;;11.70;99.90;;;;;;5095705;28;19964;-76
2022/09/22 03:36:34;;;;;;;;;;;11.50;99.90;;;;;;5095592;28;20365;-75
2022/09/22 03:38:59;;;;;;;;;;;11.40;99.90;;;;;;5095599;28;19999;-74
2022/09/22 03:41:25;;;;;;;;;;;11.20;99.90;;;;;;5095513;28;19962;-76
2022/09/22 03:43:51;;;;;;;;;;;11.30;99.90;;;;;;5095560;28;19913;-76
2022/09/22 03:46:16;;;;;;;;;;;11.40;99.90;;;;;;5095595;28;20013;-76
2022/09/22 03:48:42;;;;;;;;;;;11.20;99.90;;;;;;5095195;28;19920;-76
2022/09/22 03:51:08;;;;;;;;;;;11.30;99.90;;;;;;5095276;28;20364;-77
2022/09/22 03:53:34;;;;;;;;;;;11.20;99.90;;;;;;5095163;28;19912;-77
2022/09/22 03:56:06;;;;;;;;;;;11.20;99.90;;;;;;5095254;28;19908;-76
2022/09/22 03:58:34;;;;;;;;;;;11.50;99.90;;;;;;5095185;28;19962;-76
2022/09/22 04:00:59;;;;;;;;;;;11.60;99.90;;;;;;5095132;28;20352;-77
2022/09/22 04:03:25;;;;;;;;;;;11.60;99.90;;;;;;5095103;28;19908;-77
2022/09/22 04:05:50;;;;;;;;;;;11.50;99.90;;;;;;5094504;28;19911;-75
2022/09/22 04:08:16;;;;;;;;;;;11.40;99.90;;;;;;5095238;28;20290;-77
2022/09/22 04:10:43;;;;;;;;;;;11.40;99.90;;;;;;5094916;28;19995;-76
2022/09/22 04:13:09;;;;;;;;;;;11.30;99.90;;;;;;5094826;28;19908;-77
2022/09/22 04:15:34;;;;;;;;;;;11.30;99.90;;;;;;5094867;28;19960;-76
2022/09/22 04:18:00;;;;;;;;;;;11.30;99.90;;;;;;5094821;28;19912;-77
2022/09/22 04:20:26;;;;;;;;;;;11.30;99.90;;;;;;5094763;28;20364;-77
2022/09/22 04:22:52;;;;;;;;;;;11.30;99.90;;;;;;5094734;28;19912;-76
2022/09/22 04:25:17;;;;;;;;;;;11.30;99.90;;;;;;5094845;28;19921;-76
2022/09/22 04:27:43;;;;;;;;;;;11.20;99.90;;;;;;5095002;28;19908;-76
2022/09/22 04:30:09;;;;;;;;;;;11.20;99.90;;;;;;5094855;28;20378;-75
2022/09/22 04:32:34;;;;;;;;;;;11.10;99.90;;;;;;5095029;28;20284;-75
2022/09/22 04:35:00;;;;;;;;;;;11.20;99.90;;;;;;5094452;28;19918;-77
2022/09/22 04:37:25;;;;;;;;;;;11.20;99.90;;;;;;5094492;28;20007;-74
2022/09/22 04:39:53;;;;;;;;;;;11.30;99.90;;;;;;5094532;28;20279;-77
2022/09/22 04:42:19;;;;;;;;;;;11.20;99.90;;;;;;5094444;28;20416;-76
2022/09/22 04:44:45;;;;;;;;;;;11.20;99.90;;;;;;5094335;28;19962;-75
2022/09/22 04:47:11;;;;;;;;;;;11.20;99.90;;;;;;5094798;28;20012;-75
2022/09/22 04:49:37;;;;;;;;;;;11.20;99.90;;;;;;5093859;28;20440;-76
2022/09/22 04:52:03;;;;;;;;;;;11.10;99.90;;;;;;5094258;28;19912;-77
2022/09/22 04:54:28;;;;;;;;;;;11.00;99.90;;;;;;5094184;28;19916;-76
2022/09/22 04:56:54;;;;;;;;;;;10.90;99.90;;;;;;5094133;28;19957;-75
2022/09/22 04:59:19;;;;;;;;;;;10.90;99.90;;;;;;5094464;28;19908;-75
2022/09/22 05:01:45;;;;;;;;;;;10.90;99.90;;;;;;5094070;28;19908;-77
2022/09/22 05:04:11;;;;;;;;;;;11.00;99.90;;;;;;5094060;28;19915;-75
2022/09/22 05:06:37;;;;;;;;;;;10.90;99.90;;;;;;5094197;28;19908;-75
2022/09/22 05:09:02;;;;;;;;;;;10.90;99.90;;;;;;5094052;28;20364;-75
2022/09/22 05:11:29;;;;;;;;;;;10.90;99.90;;;;;;5093953;28;19918;-74
2022/09/22 05:13:57;;;;;;;;;;;11.00;99.90;;;;;;5093897;28;19955;-76
2022/09/22 05:16:23;;;;;;;;;;;11.00;99.90;;;;;;5093476;28;19961;-77
2022/09/22 05:18:49;;;;;;;;;;;10.90;99.90;;;;;;5092286;28;19991;-76
2022/09/22 05:21:17;;;;;;;;;;;10.90;99.90;;;;;;5093822;28;19959;-76
2022/09/22 05:23:43;;;;;;;;;;;10.90;99.90;;;;;;5093949;28;20364;-77
2022/09/22 05:26:09;;;;;;;;;;;10.80;99.90;;;;;;5093829;28;20421;-77
2022/09/22 05:28:35;;;;;;;;;;;10.90;99.90;;;;;;5093913;28;19916;-75
2022/09/22 05:31:01;;;;;;;;;;;10.80;99.90;;;;;;5094277;28;20364;-76
2022/09/22 05:33:26;;;;;;;;;;;10.80;99.90;;;;;;5093614;28;19912;-76
2022/09/22 05:35:52;;;;;;;;;;;10.70;99.90;;;;;;5093667;28;20280;-75
2022/09/22 05:38:17;;;;;;;;;;;10.50;99.90;;;;;;5093703;28;19912;-77
2022/09/22 05:40:46;;;;;;;;;;;10.60;99.90;;;;;;5093572;28;20384;-77
2022/09/22 05:43:12;;;;;;;;;;;10.70;99.90;;;;;;5093604;28;19915;-76
2022/09/22 05:45:37;;;;;;;;;;;10.50;99.90;;;;;;5093845;28;19908;-77
2022/09/22 05:48:03;;;;;;;;;;;10.50;99.90;;;;;;5093579;28;20434;-75
2022/09/22 05:50:28;;;;;;;;;;;10.60;99.90;;;;;;5093509;28;19909;-75
2022/09/22 05:53:05;;;;;;;;;;;10.60;99.90;;;;;;5093538;28;19965;-77
2022/09/22 05:55:30;;;;;;;;;;;10.60;99.90;;;;;;5093438;28;19916;-76
2022/09/22 05:57:56;;;;;;;;;;;10.70;99.90;;;;;;5093448;28;19908;-75
2022/09/22 06:00:22;;;;;;;;;;;10.70;99.90;;;;;;5093377;28;19954;-75
2022/09/22 06:02:48;;;;;;;;;;;;;;;;;;5093575;28;19935;-75
2022/09/22 06:05:13;;;;;;;;;;;10.60;99.90;;;;;;5093364;28;19911;-75
2022/09/22 06:07:39;;;;;;;;;;;10.60;99.90;;;;;;5093427;28;20252;-77
2022/09/22 06:10:05;;;;;;;;;;;10.70;99.90;;;;;;5093641;28;19915;-76
2022/09/22 06:12:30;;;;;;;;;;;10.70;99.90;;;;;;5092082;28;19915;-76
2022/09/22 06:14:56;;;;;;;;;;;10.70;99.90;;;;;;5093300;28;19912;-77
2022/09/22 06:17:22;;;;;;;;;;;10.90;99.90;;;;;;5093679;28;19908;-75
2022/09/22 06:19:49;;;;;;;;;;;11.30;99.90;;;;;;5093635;28;20350;-77
2022/09/22 06:22:15;;;;;;;;;;;11.80;99.90;;;;;;5093246;28;19957;-76
2022/09/22 06:24:41;;;;;;;;;;;12.20;99.90;;;;;;5093306;28;19948;-76
2022/09/22 06:27:07;;;;;;;;;;;12.60;99.90;;;;;;5093560;28;19908;-75
2022/09/22 06:29:32;;;;;;;;;;;13.10;99.90;;;;;;5096224;28;19908;-76
2022/09/22 06:31:58;;;;;;;;;;;13.40;98.60;;;;;;5097630;28;19912;-78
2022/09/22 06:34:25;;;;;;;;;;;13.50;98.00;;;;;;5096767;28;19915;-76
2022/09/22 06:36:54;;;;;;;;;;;13.70;97.30;;;;;;5096896;28;19908;-77
2022/09/22 06:39:21;;;;;;;;;;;14.00;98.30;;;;;;5096740;28;19908;-76
2022/09/22 06:41:47;;;;;;;;;;;14.50;96.80;;;;;;5096907;28;20007;-77
2022/09/22 06:44:14;;;;;;;;;;;14.90;95.80;;;;;;5096581;28;19909;-77
2022/09/22 06:46:40;;;;;;;;;;;15.20;94.10;;;;;;5096706;28;20260;-76
2022/09/22 06:49:06;;;;;;;;;;;15.40;92.30;;;;;;5095020;28;19920;-76
2022/09/22 06:51:32;;;;;;;;;;;15.30;91.90;;;;;;5096282;28;19960;-75
2022/09/22 06:53:59;;;;;;;;;;;15.10;94.20;;;;;;5096243;28;20380;-77
2022/09/22 06:56:25;;;;;;;;;;;15.00;95.60;;;;;;5096438;28;19908;-77
2022/09/22 06:58:51;;;;;;;;;;;14.80;96.00;;;;;;5096442;28;19915;-77
2022/09/22 07:01:17;;;;;;;;;;;14.70;96.00;;;;;;5096346;28;19908;-76
2022/09/22 07:03:43;;;;;;;;;;;15.00;94.90;;;;;;5096272;28;19954;-75
2022/09/22 07:06:09;;;;;;;;;;;15.60;94.10;;;;;;5096297;28;19912;-77
2022/09/22 07:08:37;;;;;;;;;;;16.00;93.00;;;;;;5096604;28;19995;-76
2022/09/22 07:11:06;;;;;;;;;;;16.20;92.10;;;;;;5096290;28;19912;-77
2022/09/22 07:13:34;;;;;;;;;;;15.90;92.70;;;;;;5096043;28;19912;-75
2022/09/22 07:16:06;;;;;;;;;;;15.80;93.20;;;;;;5096047;28;20361;-78
2022/09/22 07:18:34;;;;;;;;;;;15.80;93.20;;;;;;5094676;28;19908;-77
2022/09/22 07:21:00;;;;;;;;;;;15.90;93.30;;;;;;5095935;28;19908;-78
2022/09/22 07:23:27;;;;;;;;;;;15.90;93.20;;;;;;5095994;28;19915;-76
2022/09/22 07:25:58;;;;;;;;;;;16.00;93.30;;;;;;5095842;28;19976;-76
2022/09/22 07:28:27;;;;;;;;;;;16.10;93.60;;;;;;5095877;28;19998;-76
2022/09/22 07:30:52;;;;;;;;;;;16.20;93.70;;;;;;5095883;28;19993;-77
2022/09/22 07:33:20;;;;;;;;;;;16.40;94.00;;;;;;5095821;28;20279;-77
2022/09/22 07:35:46;;;;;;;;;;;17.30;93.50;;;;;;5095645;28;19908;-78
2022/09/22 07:38:12;;;;;;;;;;;18.80;91.10;;;;;;5095712;28;19914;-76
2022/09/22 07:40:37;;;;;;;;;;;20.10;88.20;;;;;;5094744;28;19915;-77
2022/09/22 07:43:03;;;;;;;;;;;21.10;83.40;;;;;;5095610;28;20360;-78
2022/09/22 07:45:28;;;;;;;;;;;21.80;81.80;;;;;;5095476;28;20292;-76
2022/09/22 07:50:38;;;;;;;;;;;23.40;79.20;;;;;;5095123;28;20011;-76
2022/09/22 07:53:03;;;;;;;;;;;24.20;74.30;;;;;;5095871;28;19944;-77
2022/09/22 07:55:29;;;;;;;;;;;24.50;70.50;;;;;;5095394;28;19908;-77
2022/09/22 07:57:59;;;;;;;;;;;25.00;67.80;;;;;;5095313;28;19912;-76
2022/09/22 08:00:26;;;;;;;;;;;24.70;68.10;;;;;;5095333;28;20268;-78
2022/09/22 08:02:57;;;;;;;;;;;25.20;67.30;;;;;;5095086;28;20352;-77
2022/09/22 08:05:23;;;;;;;;;;;25.70;65.80;;;;;;5095443;28;20283;-76
2022/09/22 08:07:49;;;;;;;;;;;25.70;65.60;;;;;;5095269;28;19908;-75
2022/09/22 08:10:15;;;;;;;;;;;25.80;64.60;;;;;;5095077;28;20382;-75
2022/09/22 08:12:41;;;;;;;;;;;26.20;64.10;;;;;;5094952;28;19994;-76
2022/09/22 08:15:07;;;;;;;;;;;26.50;63.50;;;;;;5095292;28;19916;-74
2022/09/22 08:17:33;;;;;;;;;;;26.60;62.50;;;;;;5094791;28;20399;-76
2022/09/22 08:20:00;;;;;;;;;;;26.70;62.90;;;;;;5094861;28;19909;-75
2022/09/22 08:22:27;;;;;;;;;;;26.70;61.80;;;;;;5094777;28;20276;-76
2022/09/22 08:24:53;;;;;;;;;;;26.10;60.90;;;;;;5095399;28;19937;-75
2022/09/22 08:27:18;;;;;;;;;;;25.60;62.30;;;;;;5095260;28;19919;-75
2022/09/22 08:29:47;;;;;;;;;;;25.90;60.50;;;;;;5094675;28;20372;-76
2022/09/22 08:32:18;;;;;;;;;;;25.90;59.50;;;;;;5095217;28;20327;-74
2022/09/22 08:34:44;;;;;;;;;;;25.70;60.20;;;;;;5094951;28;19919;-76
2022/09/22 08:37:10;;;;;;;;;;;26.20;59.80;;;;;;5094494;28;19908;-73
2022/09/22 08:39:35;;;;;;;;;;;26.50;59.50;;;;;;5094624;28;19908;-76
2022/09/22 08:42:06;;;;;;;;;;;27.10;58.10;;;;;;5094487;28;20364;-75
2022/09/22 08:44:51;;;;;;;;;;;28.40;56.80;;;;;;5093031;28;19915;-73
2022/09/22 08:51:50;;;;;;;;;;;28.80;55.60;;;;;;5093900;28;19915;-74
2022/09/22 08:53:00;;;;;;;;;;;29.40;54.40;;;;;;5094083;28;19972;-76
2022/09/22 08:55:26;;;;;;;;;;;29.90;53.80;;;;;;5094301;28;19912;-76
2022/09/22 08:58:12;;;;;;;;;;;31.00;51.90;;;;;;5092943;28;19914;-76
2022/09/22 09:00:47;;;;;;;;;;;31.20;50.90;;;;;;5093561;28;20284;-75
2022/09/22 09:03:22;;;;;;;;;;;32.70;50.80;;;;;;5093964;28;19991;-77
2022/09/22 09:05:53;;;;;;;;;;;33.10;47.20;;;;;;5094133;28;19908;-77
2022/09/22 09:08:22;;;;;;;;;;;34.30;47.00;;;;;;5094058;28;20292;-74
2022/09/22 09:10:55;;;;;;;;;;;36.30;44.00;;;;;;5094007;28;19908;-77
2022/09/22 09:13:36;;;;;;;;;;;36.20;43.00;;;;;;5093965;28;20422;-77
2022/09/22 09:16:04;;;;;;;;;;;35.80;43.30;;;;;;5094007;28;19915;-76
2022/09/22 09:18:35;;;;;;;;;;;36.00;42.30;;;;;;5093903;28;19909;-77
2022/09/22 09:21:02;;;;;;;;;;;34.00;42.80;;;;;;5093883;28;20003;-77
2022/09/22 09:23:32;;;;;;;;;;;33.20;43.70;;;;;;5093810;28;19916;-77
2022/09/22 09:25:59;;;;;;;;;;;34.20;43.40;;;;;;5094296;28;20309;-76
2022/09/22 09:28:34;;;;;;;;;;;35.10;42.40;;;;;;5093814;28;19909;-76
2022/09/22 09:31:26;;;;;;;;;;;34.60;42.10;;;;;;5092517;28;19908;-78
2022/09/22 09:33:55;;;;;;;;;;;34.50;42.20;;;;;;5093881;28;20380;-76
2022/09/22 09:36:22;;;;;;;;;;;36.80;40.60;;;;;;5093831;28;20355;-77
2022/09/22 09:38:55;;;;;;;;;;;37.30;39.40;;;;;;5093725;28;19908;-78
2022/09/22 09:41:30;;;;;;;;;;;38.70;39.90;;;;;;5093651;28;19908;-77
2022/09/22 09:43:56;;;;;;;;;;;39.10;38.40;;;;;;5093751;28;19912;-76
2022/09/22 09:46:36;;;;;;;;;;;39.30;38.20;;;;;;5093653;28;19958;-76
2022/09/22 09:49:15;;;;;;;;;;;39.50;37.90;;;;;;5093893;28;19927;-77
2022/09/22 09:51:43;;;;;;;;;;;40.60;38.30;;;;;;5094520;28;19908;-76
2022/09/22 09:54:11;;;;;;;;;;;40.50;37.20;;;;;;5095169;28;19912;-77
2022/09/22 09:56:57;;;;;;;;;;;40.90;37.20;;;;;;5094736;28;19908;-77
2022/09/22 10:02:15;;;;;;;;;;;40.20;36.20;;;;;;5093739;28;21318;-76
2022/09/22 10:04:47;;;;;;;;;;;39.90;36.40;;;;;;5097979;28;20348;-78
2022/09/22 10:07:20;;;;;;;;;;;42.40;35.70;;;;;;5098718;28;19934;-76
2022/09/22 10:09:49;;;;;;;;;;;41.70;35.20;;;;;;5098556;28;20391;-78
2022/09/22 10:12:23;;;;;;;;;;;40.00;35.60;;;;;;5098170;28;19945;-79
2022/09/22 10:14:53;;;;;;;;;;;40.80;36.30;;;;;;5099165;28;19963;-78
2022/09/22 10:17:20;;;;;;;;;;;43.20;33.90;;;;;;5099282;28;20003;-76
2022/09/22 10:19:46;;;;;;;;;;;43.90;34.30;;;;;;5099833;28;20368;-76
2022/09/22 10:22:29;;;;;;;;;;;45.10;33.40;;;;;;5099848;28;19909;-79
2022/09/22 10:24:56;;;;;;;;;;;45.30;32.70;;;;;;5099776;28;19938;-76
2022/09/22 10:27:23;;;;;;;;;;;43.80;33.30;;;;;;5099222;28;19947;-77
2022/09/22 10:30:12;;;;;;;;;;;45.30;32.80;;;;;;5098773;28;19912;-78
2022/09/22 10:32:38;;;;;;;;;;;44.70;31.60;;;;;;5090110;28;19908;-78
2022/09/22 10:35:26;;;;;;;;;;;42.40;31.80;;;;;;5097860;28;19919;-76
2022/09/22 10:37:52;;;;;;;;;;;43.60;32.80;;;;;;5096556;28;19912;-78
2022/09/22 10:40:20;;;;;;;;;;;45.50;32.20;;;;;;5097364;28;19913;-77
2022/09/22 10:42:47;;;;;;;;;;;45.80;31.60;;;;;;5096906;28;19908;-78
2022/09/22 10:45:18;;;;;;;;;;;44.20;31.50;;;;;;5096717;28;20280;-80
2022/09/22 10:47:50;;;;;;;;;;;45.80;32.20;;;;;;5096662;28;19908;-77
2022/09/22 10:50:18;;;;;;;;;;;44.20;31.20;;;;;;5097517;28;19916;-79
2022/09/22 10:52:56;;;;;;;;;;;45.30;32.00;;;;;;5096942;28;19916;-78
2022/09/22 10:55:27;;;;;;;;;;;44.60;31.90;;;;;;5096939;28;20057;-79
2022/09/22 10:58:02;;;;;;;;;;;45.00;32.00;;;;;;5097625;28;20261;-77
2022/09/22 11:00:31;;;;;;;;;;;43.90;31.20;;;;;;5097116;28;20002;-77
2022/09/22 11:03:05;;;;;;;;;;;44.30;31.80;;;;;;5097096;28;19987;-77
2022/09/22 11:14:00;;;;;;;;;;;44.10;30.80;;;;;;5087344;28;19927;-77
2022/09/22 11:16:30;;;;;;;;;;;46.00;29.90;;;;;;5086088;28;19908;-80
2022/09/22 11:19:02;;;;;;;;;;;46.40;29.90;;;;;;5086551;28;19915;-77
2022/09/22 11:21:42;;;;;;;;;;;47.90;29.80;;;;;;5085024;28;19916;-78
2022/09/22 11:24:26;;;;;;;;;;;48.00;29.80;;;;;;5085005;28;19908;-78
2022/09/22 11:26:56;;;;;;;;;;;48.10;29.80;;;;;;5088161;28;19909;-77
2022/09/22 11:29:40;;;;;;;;;;;46.90;29.70;;;;;;5085586;28;20061;-78
2022/09/22 11:32:25;;;;;;;;;;;46.40;30.00;;;;;;5088749;28;19908;-79
2022/09/22 11:35:09;;;;;;;;;;;46.70;29.40;;;;;;5084658;28;19966;-77
2022/09/22 11:37:48;;;;;;;;;;;44.10;29.60;;;;;;5076873;28;19951;-76
2022/09/22 11:40:32;;;;;;;;;;;43.10;30.10;;;;;;5076978;28;19999;-78
2022/09/22 11:42:58;;;;;;;;;;;47.40;30.00;;;;;;5076880;28;19912;-78
2022/09/22 11:45:42;;;;;;;;;;;46.70;29.50;;;;;;5076725;28;19915;-76
2022/09/22 11:48:15;;;;;;;;;;;45.80;30.00;;;;;;5075622;28;19917;-79
2022/09/22 11:50:50;;;;;;;;;;;48.30;29.60;;;;;;5076967;28;20280;-77
2022/09/22 11:53:34;;;;;;;;;;;49.50;29.10;;;;;;5076050;28;20372;-78
2022/09/22 11:56:05;;;;;;;;;;;50.70;28.50;;;;;;5074196;28;19908;-80
2022/09/22 11:58:31;;;;;;;;;;;51.30;27.80;;;;;;5075364;28;19908;-80
2022/09/22 12:01:17;;;;;;;;;;;51.50;27.60;;;;;;5075157;28;19914;-80
2022/09/22 12:03:49;;;;;;;;;;;51.70;27.40;;;;;;5075134;28;19916;-80
2022/09/22 12:06:20;;;;;;;;;;;53.50;27.70;;;;;;5074842;28;19952;-80
2022/09/22 12:08:54;;;;;;;;;;;54.30;27.60;;;;;;5073711;28;19909;-78
2022/09/22 12:11:21;;;;;;;;;;;54.40;27.30;;;;;;5073417;28;20262;-80
2022/09/22 12:13:49;;;;;;;;;;;55.20;27.20;;;;;;5075155;28;19982;-79
2022/09/22 12:16:18;;;;;;;;;;;54.40;27.00;;;;;;5075402;28;19909;-78
2022/09/22 12:18:43;;;;;;;;;;;52.10;27.10;;;;;;5074956;28;19908;-80
2022/09/22 12:21:28;;;;;;;;;;;51.10;27.10;;;;;;5075211;28;19913;-80
2022/09/22 12:23:54;;;;;;;;;;;51.50;27.80;;;;;;5075564;28;19909;-80
2022/09/22 12:26:26;;;;;;;;;;;49.80;27.40;;;;;;5076360;28;19968;-76
2022/09/22 12:28:51;;;;;;;;;;;48.10;28.00;;;;;;5077440;28;19980;-77
2022/09/22 12:31:19;;;;;;;;;;;48.90;28.00;;;;;;5075287;28;19943;-77
2022/09/22 12:33:50;;;;;;;;;;;49.80;27.80;;;;;;5074816;28;19913;-76
2022/09/22 12:36:16;;;;;;;;;;;50.20;27.70;;;;;;5074544;28;19916;-78
2022/09/22 12:38:43;;;;;;;;;;;50.80;28.00;;;;;;5074969;28;19955;-79
2022/09/22 12:41:15;;;;;;;;;;;49.40;27.90;;;;;;5075033;28;19955;-78
2022/09/22 12:43:41;;;;;;;;;;;50.80;27.70;;;;;;5076148;28;19917;-78
2022/09/22 12:46:16;;;;;;;;;;;49.70;27.50;;;;;;5075625;28;19908;-80
2022/09/22 12:48:42;;;;;;;;;;;50.70;27.20;;;;;;5073795;28;19927;-77
2022/09/22 12:51:14;;;;;;;;;;;50.20;27.20;;;;;;5075468;28;19919;-76
2022/09/22 12:53:39;;;;;;;;;;;53.40;27.80;;;;;;5075134;28;19952;-78
2022/09/22 12:56:25;;;;;;;;;;;53.80;27.10;;;;;;5074591;28;19959;-77
2022/09/22 12:58:50;;;;;;;;;;;50.50;26.90;;;;;;5075001;28;19916;-76
2022/09/22 13:01:33;;;;;;;;;;;48.50;27.60;;;;;;5075332;28;19912;-77
2022/09/22 13:04:04;;;;;;;;;;;49.10;28.10;;;;;;5075417;28;20275;-78
2022/09/22 13:06:29;;;;;;;;;;;48.00;27.60;;;;;;5076021;28;20281;-78
2022/09/22 13:08:55;;;;;;;;;;;50.20;28.00;;;;;;5075475;28;19915;-76
2022/09/22 13:11:39;;;;;;;;;;;49.00;27.40;;;;;;5075266;28;20011;-76
2022/09/22 13:14:25;;;;;;;;;;;48.30;27.90;;;;;;5073810;28;20007;-79
2022/09/22 13:16:51;;;;;;;;;;;47.50;27.90;;;;;;5073685;28;19908;-77
2022/09/22 13:19:17;;;;;;;;;;;47.00;28.30;;;;;;5072398;28;19916;-78
2022/09/22 13:21:42;;;;;;;;;;;45.10;28.80;;;;;;5073644;28;19912;-77
2022/09/22 13:24:15;;;;;;;;;;;44.00;29.10;;;;;;5073688;28;19967;-77
2022/09/22 13:26:41;;;;;;;;;;;44.80;29.20;;;;;;5073778;28;19962;-75
2022/09/22 13:29:16;;;;;;;;;;;47.10;28.90;;;;;;5073761;28;19909;-75
2022/09/22 13:31:45;;;;;;;;;;;45.90;28.90;;;;;;5073642;28;19915;-75
2022/09/22 13:34:25;;;;;;;;;;;46.40;28.40;;;;;;5073996;28;19990;-77
2022/09/22 13:36:55;;;;;;;;;;;46.70;28.50;;;;;;5073569;28;19908;-79
2022/09/22 13:39:22;;;;;;;;;;;49.60;28.40;;;;;;5076476;28;19959;-77
2022/09/22 13:41:51;;;;;;;;;;;50.00;28.30;;;;;;5077620;28;19912;-77
2022/09/22 13:44:20;;;;;;;;;;;51.20;27.90;;;;;;5077840;28;19915;-77
2022/09/22 13:46:46;;;;;;;;;;;50.10;28.10;;;;;;5077668;28;19913;-78
2022/09/22 13:49:15;;;;;;;;;;;48.40;27.70;;;;;;5077413;28;20312;-77
2022/09/22 13:51:41;;;;;;;;;;;48.60;28.20;;;;;;5077452;28;19947;-76
2022/09/22 13:54:15;;;;;;;;;;;49.70;28.30;;;;;;5077362;28;19978;-77
2022/09/22 13:56:40;;;;;;;;;;;48.80;28.00;;;;;;5077472;28;19944;-78
2022/09/22 13:59:06;;;;;;;;;;;46.40;28.20;;;;;;5077312;28;19973;-78
2022/09/22 14:01:32;;;;;;;;;;;44.50;29.10;;;;;;5077242;28;19912;-78
2022/09/22 14:03:58;;;;;;;;;;;42.50;29.70;;;;;;5077677;28;19919;-76
2022/09/22 14:06:26;;;;;;;;;;;42.50;30.00;;;;;;5077203;28;19908;-76
2022/09/22 14:08:52;;;;;;;;;;;41.50;30.50;;;;;;5077291;28;19909;-76
2022/09/22 14:11:20;;;;;;;;;;;42.40;30.00;;;;;;5077277;28;19915;-77
2022/09/22 14:13:51;;;;;;;;;;;42.80;30.20;;;;;;5076934;28;19912;-75
2022/09/22 14:16:26;;;;;;;;;;;43.20;30.80;;;;;;5076969;28;19908;-78
2022/09/22 14:18:56;;;;;;;;;;;42.80;30.20;;;;;;5077172;28;19913;-78
2022/09/22 14:21:21;;;;;;;;;;;42.10;30.00;;;;;;5076863;28;19916;-77
2022/09/22 14:23:48;;;;;;;;;;;42.20;30.00;;;;;;5076900;28;20284;-77
2022/09/22 14:26:18;;;;;;;;;;;41.40;30.00;;;;;;5076750;28;20430;-77
2022/09/22 14:28:43;;;;;;;;;;;42.20;30.90;;;;;;5076741;28;19909;-76
2022/09/22 14:31:13;;;;;;;;;;;39.90;30.20;;;;;;5076693;28;19908;-77
2022/09/22 14:33:39;;;;;;;;;;;40.60;31.00;;;;;;5077102;28;19916;-75
2022/09/22 14:36:06;;;;;;;;;;;40.90;30.40;;;;;;5076980;28;19909;-78
2022/09/22 14:38:38;;;;;;;;;;;40.50;30.20;;;;;;5076542;28;19923;-76
2022/09/22 14:41:19;;;;;;;;;;;40.00;30.90;;;;;;5075259;28;19908;-76
2022/09/22 14:43:45;;;;;;;;;;;39.40;31.00;;;;;;5076660;28;19908;-75
2022/09/22 14:46:20;;;;;;;;;;;40.10;31.20;;;;;;5076325;28;20028;-75
2022/09/22 14:48:45;;;;;;;;;;;41.50;30.20;;;;;;5075854;28;19928;-77